Hauptseite
METAR-TAF:

METAR-TAF

Flughäfen :

Flughafen Visby

Visby, Gotland, Schweden

Breite: 57-40N, Länge: 018-21E, Höhe: 51 m

Beobachtung

Neuester Wetterbericht von vor 34 Minuten, um 22:50 UTC
Wind 13 kt aus Nord
Temperatur 3°C
Luftfeuchtigkeit 81%
Luftdruck 1001 hPa
Sichtweite 10 km oder mehr

METAR: ESSV 162250Z AUTO 36013KT 9999 FEW048/// 03/00 Q1001

Zeit: 01:24 (23:24 UTC)

Prognose

Neuester Wetterbericht von vor 5 Stunden und 54 Minuten, um 17:30 UTC
Gültige Prognose vom 16 um 18 UTC bis 16 um 20 UTC
Wind 10 kt aus Nord
Sichtweite 10 km oder mehr
Durchbrochene Bewölkung in der Höhe von 700 ft
Wahrscheinlichkeit 40%
vom 16 um 18 UTC bis 16 um 20 UTC
Sichtweite: 4000 m
Durchbrochene Bewölkung in der Höhe von 400 ft
Sprühregen, feuchter Dunst,

TAF: ESSV 161730Z 1618/1620 01010KT 9999 BKN007 PROB40 1618/1620 4000 DZ BR BKN004

Wetterbeobachtungen und Prognosen von mehr als 4000 Flughäfen (METAR und TAF Bericht).

Die verfügbaren Stationen werden durch gelbe und rote Markierungen auf der Karte dargestellt.

Führen Sie die Maus auf sie, um den Namen der Station zu sehen.

Darauf klicken, um die Beobachtung von Wetterbeobachtungen und Prognosen zu sehen.

Um die Karte zu ändern : klicken Sie auf den grünen Tasten mit einem schwarzen Kreuz Zum Vergrößern, auf den grünen Button mit einem Gedankenstrich zu verkleinern, oder auf die grünen Pfeile für benachbarte Karten.


METAR-TAF: